createdAt,value
2022-11-24T00:01:21.144Z,100138.25
2022-11-24T00:04:01.798Z,100146.13
2022-11-24T00:06:30.657Z,100147.00
2022-11-24T00:08:58.814Z,100138.25
2022-11-24T00:11:32.899Z,100143.47
2022-11-24T00:14:00.954Z,100139.13
2022-11-24T00:16:34.294Z,100146.97
2022-11-24T00:19:05.376Z,100154.84
2022-11-24T00:21:32.819Z,100151.34
2022-11-24T00:24:00.219Z,100151.34
2022-11-24T00:26:31.017Z,100158.31
2022-11-24T00:29:01.774Z,100158.34
2022-11-24T00:31:39.994Z,100161.84
2022-11-24T00:34:11.489Z,100166.22
2022-11-24T00:36:39.361Z,100167.09
2022-11-24T00:39:11.389Z,100164.47
2022-11-24T00:41:38.616Z,100168.84
2022-11-24T00:44:05.947Z,100174.94
2022-11-24T00:46:33.562Z,100175.78
2022-11-24T00:49:00.745Z,100167.94
2022-11-24T00:51:30.299Z,100186.28
2022-11-24T00:54:01.658Z,100173.19
2022-11-24T00:56:30.006Z,100188.88
2022-11-24T00:58:57.532Z,100172.31
2022-11-24T01:01:28.322Z,100173.19
2022-11-24T01:03:55.848Z,100179.31
2022-11-24T01:06:25.963Z,100178.44
2022-11-24T01:08:53.643Z,100184.56
2022-11-24T01:11:28.152Z,100196.78
2022-11-24T01:16:40.071Z,100196.78
2022-11-24T01:19:07.083Z,100192.41
2022-11-24T01:25:15.950Z,100196.75
2022-11-24T01:27:42.962Z,100195.88
2022-11-24T01:30:11.077Z,100203.75
2022-11-24T01:32:38.095Z,100192.38
2022-11-24T01:35:06.730Z,100202.03
2022-11-24T01:40:16.639Z,100202.88
2022-11-24T01:42:50.679Z,100207.25
2022-11-24T01:45:28.447Z,100220.34
2022-11-24T01:47:56.155Z,100220.34
2022-11-24T01:50:23.961Z,100217.72
2022-11-24T01:52:55.311Z,100218.59
2022-11-24T01:55:31.594Z,100221.22
2022-11-24T01:58:37.798Z,100220.34
2022-11-24T02:01:05.156Z,100230.81
2022-11-24T02:06:24.094Z,100229.06
2022-11-24T02:11:39.648Z,100231.72
2022-11-24T02:14:10.555Z,100240.44
2022-11-24T02:16:39.202Z,100241.31
2022-11-24T02:19:33.464Z,100237.81
2022-11-24T02:22:01.577Z,100243.91
2022-11-24T02:25:01.624Z,100244.81
2022-11-24T02:27:28.790Z,100250.03
2022-11-24T02:29:55.991Z,100244.81
2022-11-24T02:32:23.885Z,100244.81
2022-11-24T02:35:05.344Z,100250.06
2022-11-24T02:37:32.299Z,100257.94
2022-11-24T02:39:59.389Z,100260.53
2022-11-24T02:42:31.094Z,100265.81
2022-11-24T02:45:01.701Z,100271.03
2022-11-24T02:47:28.765Z,100263.19
2022-11-24T02:49:55.706Z,100260.53
2022-11-24T02:52:22.654Z,100257.06
2022-11-24T02:54:52.299Z,100256.16
2022-11-24T02:57:19.297Z,100258.81
2022-11-24T02:59:46.625Z,100261.41
2022-11-24T03:02:13.595Z,100265.75
2022-11-24T03:04:40.737Z,100261.41
2022-11-24T03:07:07.844Z,100272.78
2022-11-24T03:09:34.802Z,100263.16
2022-11-24T03:12:01.726Z,100280.66
2022-11-24T03:14:28.833Z,100276.28
2022-11-24T03:34:39.667Z,100292.88
2022-11-24T03:37:10.552Z,100292.88
2022-11-24T03:53:35.536Z,100299.84
2022-11-24T04:01:35.719Z,100295.50
2022-11-24T04:06:40.516Z,100308.59
2022-11-24T04:14:33.713Z,100315.56
2022-11-24T04:29:53.184Z,100333.94
2022-11-24T04:32:20.400Z,100333.97
2022-11-24T04:34:47.396Z,100337.44
2022-11-24T04:37:14.503Z,100332.19
2022-11-24T04:39:41.685Z,100339.19
2022-11-24T04:44:49.590Z,100347.94
2022-11-24T04:47:21.215Z,100358.44
2022-11-24T04:49:49.232Z,100361.97
2022-11-24T04:52:22.846Z,100347.94
2022-11-24T04:54:50.772Z,100358.44
2022-11-24T04:57:24.562Z,100361.06
2022-11-24T04:59:52.750Z,100368.06
2022-11-24T05:02:20.637Z,100367.19
2022-11-24T05:04:48.263Z,100367.16
2022-11-24T05:07:18.882Z,100366.28
2022-11-24T05:10:05.661Z,100368.94
2022-11-24T05:12:33.007Z,100371.56
2022-11-24T05:15:01.999Z,100375.06
2022-11-24T05:17:34.935Z,100380.31
2022-11-24T05:20:02.942Z,100377.69
2022-11-24T05:22:30.445Z,100375.06
2022-11-24T05:24:57.679Z,100374.19
2022-11-24T05:27:25.212Z,100374.19
2022-11-24T05:29:52.156Z,100381.19
2022-11-24T05:32:19.184Z,100384.69
2022-11-24T05:34:46.190Z,100383.81
2022-11-24T05:37:13.157Z,100387.28
2022-11-24T05:39:40.185Z,100396.94
2022-11-24T05:42:27.169Z,100398.69
2022-11-24T05:44:54.413Z,100403.94
2022-11-24T05:47:21.958Z,100409.19
2022-11-24T05:49:49.409Z,100408.31
2022-11-24T05:52:17.202Z,100410.94
2022-11-24T05:54:44.424Z,100415.28
2022-11-24T05:57:11.358Z,100418.78
2022-11-24T05:59:38.494Z,100423.19
2022-11-24T06:02:05.547Z,100424.94
2022-11-24T06:04:32.881Z,100431.03
2022-11-24T06:07:00.182Z,100437.16
2022-11-24T06:09:27.424Z,100440.66
2022-11-24T06:11:54.622Z,100460.78
2022-11-24T06:14:21.661Z,100457.28
2022-11-24T06:16:48.670Z,100450.28
2022-11-24T06:19:15.670Z,100457.28
2022-11-24T06:21:42.674Z,100474.75
2022-11-24T06:24:09.778Z,100473.88
2022-11-24T06:26:36.797Z,100483.50
2022-11-24T06:29:03.947Z,100489.63
2022-11-24T06:31:31.032Z,100493.97
2022-11-24T06:33:59.428Z,100499.22
2022-11-24T06:36:26.958Z,100500.09
2022-11-24T06:38:54.413Z,100504.47
2022-11-24T06:41:21.431Z,100509.69
2022-11-24T06:43:48.452Z,100514.94
2022-11-24T06:46:15.512Z,100519.28
2022-11-24T06:48:42.597Z,100523.66
2022-11-24T06:51:13.077Z,100520.16
2022-11-24T06:53:41.190Z,100526.28
2022-11-24T06:56:16.256Z,100535.91
2022-11-24T06:58:51.777Z,100543.75
2022-11-24T07:01:21.655Z,100548.13
2022-11-24T07:03:49.655Z,100567.38
2022-11-24T07:06:17.930Z,100558.63
2022-11-24T07:08:45.343Z,100573.50
2022-11-24T07:11:17.129Z,100573.50
2022-11-24T07:13:45.561Z,100580.47
2022-11-24T07:16:22.515Z,100596.25
2022-11-24T07:18:52.372Z,100596.25
2022-11-24T07:21:21.172Z,100610.25
2022-11-24T07:23:54.380Z,100605.00
2022-11-24T07:26:22.077Z,100610.28
2022-11-24T07:28:49.545Z,100619.91
2022-11-24T07:31:20.394Z,100620.78
2022-11-24T07:33:52.647Z,100621.66
2022-11-24T07:36:20.162Z,100626.91
2022-11-24T07:38:47.270Z,100634.78
2022-11-24T07:41:16.590Z,100633.00
2022-11-24T07:43:43.683Z,100643.47
2022-11-24T07:46:13.467Z,100641.72
2022-11-24T07:48:40.615Z,100646.94
2022-11-24T07:51:08.133Z,100654.78
2022-11-24T07:53:36.475Z,100657.41
2022-11-24T07:56:06.231Z,100663.53
2022-11-24T07:58:36.492Z,100673.16
2022-11-24T08:01:15.993Z,100667.91
2022-11-24T08:03:44.070Z,100674.91
2022-11-24T08:06:35.390Z,100680.13
2022-11-24T08:08:59.898Z,100690.63
2022-11-24T08:11:27.859Z,100689.75
2022-11-24T08:13:54.905Z,100691.50
2022-11-24T08:16:21.949Z,100697.63
2022-11-24T08:18:54.949Z,100692.38
2022-11-24T08:21:25.610Z,100700.31
2022-11-24T08:23:57.494Z,100697.72
2022-11-24T08:26:25.502Z,100704.72
2022-11-24T08:28:59.483Z,100714.38
2022-11-24T08:31:33.567Z,100726.63
2022-11-24T08:34:02.493Z,100717.94
2022-11-24T08:36:29.746Z,100724.06
2022-11-24T08:38:59.249Z,100729.34
2022-11-24T08:41:27.561Z,100733.75
2022-11-24T08:43:55.713Z,100734.63
2022-11-24T08:46:24.011Z,100746.06
2022-11-24T08:48:54.411Z,100748.69
2022-11-24T08:51:25.938Z,100756.59
2022-11-24T08:53:58.684Z,100763.59
2022-11-24T08:56:31.733Z,100763.63
2022-11-24T08:58:59.665Z,100765.38
2022-11-24T09:01:27.624Z,100762.78
2022-11-24T09:03:55.285Z,100759.28
2022-11-24T09:06:27.186Z,100771.56
2022-11-24T09:08:55.610Z,100764.56
2022-11-24T09:11:24.639Z,100769.84
2022-11-24T09:13:51.995Z,100777.75
2022-11-24T09:16:29.046Z,100781.34
2022-11-24T09:19:02.534Z,100783.97
2022-11-24T09:21:31.160Z,100783.94
2022-11-24T09:23:58.566Z,100792.75
2022-11-24T09:26:29.264Z,100790.97
2022-11-24T09:28:58.766Z,100793.59
2022-11-24T09:31:29.591Z,100798.03
2022-11-24T09:33:57.742Z,100802.41
2022-11-24T09:36:25.066Z,100806.81
2022-11-24T09:38:52.715Z,100801.53
2022-11-24T09:42:08.935Z,100814.72
2022-11-24T09:45:01.167Z,100819.09
2022-11-24T09:48:03.990Z,100826.09
2022-11-24T09:50:38.896Z,100827.88
2022-11-24T09:53:39.840Z,100830.47
2022-11-24T09:56:25.201Z,100837.53
2022-11-24T09:58:54.799Z,100839.28
2022-11-24T10:01:34.011Z,100839.28
2022-11-24T10:04:06.427Z,100837.53
2022-11-24T10:07:03.630Z,100839.28
2022-11-24T10:09:53.376Z,100845.44
2022-11-24T10:13:02.885Z,100852.44
2022-11-24T10:15:55.764Z,100849.84
2022-11-24T10:18:50.084Z,100851.56
2022-11-24T10:21:59.638Z,100865.63
2022-11-24T10:24:32.684Z,100871.75
2022-11-24T10:27:10.392Z,100874.41
2022-11-24T10:29:41.546Z,100875.28
2022-11-24T10:32:20.007Z,100876.16
2022-11-24T10:34:50.714Z,100872.63
2022-11-24T10:37:45.862Z,100884.06
2022-11-24T10:43:28.469Z,100891.06
2022-11-24T10:46:19.689Z,100893.72
2022-11-24T10:48:57.718Z,100884.91
2022-11-24T10:52:14.682Z,100881.41
2022-11-24T10:55:14.242Z,100887.56
2022-11-24T10:57:41.697Z,100883.16
2022-11-24T11:00:20.935Z,100884.06
2022-11-24T11:03:25.550Z,100874.41
2022-11-24T11:06:14.164Z,100880.53
2022-11-24T11:08:41.749Z,100875.25
2022-11-24T11:11:34.941Z,100877.88
2022-11-24T11:14:12.996Z,100878.78
2022-11-24T11:19:49.801Z,100874.34
2022-11-24T11:22:37.249Z,100870.00
2022-11-24T11:25:10.281Z,100874.38
2022-11-24T11:27:40.282Z,100881.41
2022-11-24T11:36:14.805Z,100884.88
2022-11-24T11:38:43.564Z,100881.41
2022-11-24T11:41:28.893Z,100881.41
2022-11-24T11:44:28.785Z,100884.91
2022-11-24T11:46:59.321Z,100885.78
2022-11-24T11:49:26.557Z,100877.00
2022-11-24T11:52:47.677Z,100878.75
2022-11-24T11:55:31.765Z,100871.72
2022-11-24T11:58:39.834Z,100879.63
2022-11-24T12:01:07.722Z,100881.41
2022-11-24T12:04:15.138Z,100882.25
2022-11-24T12:07:09.432Z,100880.50
2022-11-24T12:10:05.489Z,100876.97
2022-11-24T12:16:02.291Z,100878.75
2022-11-24T12:19:03.838Z,100894.53
2022-11-24T12:21:49.630Z,100878.69
2022-11-24T12:24:32.725Z,100885.72
2022-11-24T12:27:17.915Z,100891.84
2022-11-24T12:30:11.158Z,100883.94
2022-11-24T12:32:56.659Z,100886.59
2022-11-24T12:35:42.763Z,100888.34
2022-11-24T12:38:21.782Z,100888.31
2022-11-24T12:44:32.758Z,100889.19
2022-11-24T12:47:35.585Z,100894.47
2022-11-24T12:50:21.116Z,100889.19
2022-11-24T12:53:00.951Z,100890.94
2022-11-24T12:55:32.231Z,100890.06
2022-11-24T12:58:50.377Z,100888.28
2022-11-24T13:01:36.159Z,100890.94
2022-11-24T13:07:12.423Z,100887.41
2022-11-24T13:10:54.219Z,100887.38
2022-11-24T13:13:15.562Z,100883.03
2022-11-24T13:16:28.543Z,100885.66
2022-11-24T13:18:59.267Z,100887.41
2022-11-24T13:22:01.076Z,100885.63
2022-11-24T13:24:32.006Z,100894.41
2022-11-24T13:27:17.976Z,100892.66
2022-11-24T13:29:48.172Z,100886.47
2022-11-24T13:32:15.049Z,100886.47
2022-11-24T13:34:49.853Z,100891.72
2022-11-24T13:37:31.150Z,100883.81
2022-11-24T13:40:17.838Z,100895.22
2022-11-24T13:43:01.674Z,100884.69
2022-11-24T13:45:49.559Z,100881.22
2022-11-24T13:48:19.949Z,100881.19
2022-11-24T13:50:49.994Z,100882.13
2022-11-24T13:53:28.719Z,100879.50
2022-11-24T13:56:03.225Z,100876.00
2022-11-24T13:58:44.743Z,100874.25
2022-11-24T14:01:35.554Z,100878.63
2022-11-24T14:04:32.629Z,100880.41
2022-11-24T14:07:11.635Z,100876.91
2022-11-24T14:09:52.195Z,100880.44
2022-11-24T14:12:25.223Z,100873.44
2022-11-24T14:14:57.466Z,100872.53
2022-11-24T14:17:28.794Z,100874.31
2022-11-24T14:19:58.311Z,100869.94
2022-11-24T14:22:34.810Z,100858.53
2022-11-24T14:25:03.675Z,100870.84
2022-11-24T14:27:39.281Z,100865.59
2022-11-24T14:30:21.255Z,100862.09
2022-11-24T14:33:00.944Z,100862.06
2022-11-24T14:35:45.852Z,100855.94
2022-11-24T14:38:13.475Z,100860.34
2022-11-24T14:40:53.219Z,100865.59
2022-11-24T14:43:30.423Z,100872.63
2022-11-24T14:45:58.443Z,100874.38
2022-11-24T14:48:29.441Z,100875.25
2022-11-24T14:51:11.349Z,100887.53
2022-11-24T14:53:45.733Z,100884.03
2022-11-24T14:56:24.154Z,100883.16
2022-11-24T14:58:52.438Z,100882.28
2022-11-24T15:01:32.803Z,100892.81
2022-11-24T15:04:26.930Z,100894.59
2022-11-24T15:07:24.955Z,100893.69
2022-11-24T15:10:00.305Z,100900.72
2022-11-24T15:12:40.825Z,100897.19
2022-11-24T15:15:13.816Z,100899.84
2022-11-24T15:17:57.526Z,100907.72
2022-11-24T15:20:27.193Z,100903.31
2022-11-24T15:23:16.113Z,100902.44
2022-11-24T15:25:43.993Z,100893.69
2022-11-24T15:28:12.015Z,100891.88
2022-11-24T15:30:39.256Z,100892.78
2022-11-24T15:33:18.191Z,100902.44
2022-11-24T15:35:46.083Z,100898.91
2022-11-24T15:38:13.773Z,100891.00
2022-11-24T15:40:43.530Z,100893.59
2022-11-24T15:43:28.846Z,100906.75
2022-11-24T15:45:56.021Z,100898.84
2022-11-24T15:48:23.122Z,100906.69
2022-11-24T15:50:51.218Z,100898.81
2022-11-24T15:53:27.288Z,100904.91
2022-11-24T15:55:56.477Z,100904.00
2022-11-24T15:58:24.428Z,100906.59
2022-11-24T16:00:53.822Z,100900.44
2022-11-24T16:06:24.800Z,100896.00
2022-11-24T16:08:53.669Z,100892.44
2022-11-24T16:11:21.674Z,100898.56
2022-11-24T16:13:52.813Z,100898.53
2022-11-24T16:16:22.956Z,100895.03
2022-11-24T16:18:50.647Z,100902.91
2022-11-24T16:21:17.792Z,100904.63
2022-11-24T16:23:45.706Z,100901.97
2022-11-24T16:26:12.719Z,100902.81
2022-11-24T16:28:40.647Z,100906.31
2022-11-24T16:31:07.861Z,100910.69
2022-11-24T16:33:34.888Z,100914.13
2022-11-24T16:36:01.843Z,100914.13
2022-11-24T16:38:28.869Z,100909.75
2022-11-24T16:40:56.889Z,100907.13
2022-11-24T16:43:24.809Z,100904.50
2022-11-24T16:46:23.337Z,100898.31
2022-11-24T16:48:53.752Z,100900.94
2022-11-24T16:51:29.913Z,100909.69
2022-11-24T16:54:02.372Z,100899.19
2022-11-24T16:56:30.490Z,100900.06
2022-11-24T16:58:57.560Z,100898.31
2022-11-24T17:01:26.112Z,100894.81
2022-11-24T17:03:53.396Z,100901.00
2022-11-24T17:06:20.511Z,100898.38
2022-11-24T17:08:48.411Z,100908.00
2022-11-24T17:11:21.181Z,100903.56
2022-11-24T17:13:49.288Z,100910.56
2022-11-24T17:16:20.158Z,100908.81
2022-11-24T17:18:47.951Z,100906.19
2022-11-24T17:21:18.746Z,100915.81
2022-11-24T17:23:46.047Z,100914.06
2022-11-24T17:26:16.291Z,100921.94
2022-11-24T17:28:43.527Z,100914.06
2022-11-24T17:31:22.109Z,100918.44
2022-11-24T17:33:50.662Z,100926.31
2022-11-24T17:36:17.804Z,100926.31
2022-11-24T17:38:44.824Z,100918.44
2022-11-24T17:41:12.431Z,100918.44
2022-11-24T17:43:40.036Z,100916.69
2022-11-24T17:46:07.675Z,100914.06
2022-11-24T17:48:36.702Z,100914.94
2022-11-24T17:51:09.619Z,100912.25
2022-11-24T17:53:37.614Z,100907.88
2022-11-24T17:56:06.645Z,100906.13
2022-11-24T17:58:41.239Z,100912.25
2022-11-24T18:01:10.312Z,100907.81
2022-11-24T18:03:39.899Z,100900.81
2022-11-24T18:06:09.524Z,100909.50
2022-11-24T18:08:38.494Z,100909.47
2022-11-24T18:11:12.936Z,100909.44
2022-11-24T18:14:00.234Z,100903.28
2022-11-24T18:16:30.515Z,100891.00
2022-11-24T18:19:09.811Z,100897.09
2022-11-24T18:21:42.381Z,100898.84
2022-11-24T18:24:11.393Z,100894.41
2022-11-24T18:26:42.231Z,100898.78
2022-11-24T18:29:11.046Z,100903.16
2022-11-24T18:31:38.885Z,100896.09
2022-11-24T18:34:07.012Z,100896.97
2022-11-24T18:36:35.144Z,100896.97
2022-11-24T18:39:05.313Z,100903.06
2022-11-24T18:41:33.073Z,100896.06
2022-11-24T18:44:07.821Z,100889.03
2022-11-24T18:46:35.193Z,100885.53
2022-11-24T18:49:04.537Z,100891.63
2022-11-24T18:51:31.719Z,100883.75
2022-11-24T18:53:59.135Z,100894.25
2022-11-24T18:56:26.980Z,100887.19
2022-11-24T18:58:56.077Z,100891.56
2022-11-24T19:01:29.014Z,100882.81
2022-11-24T19:03:59.582Z,100885.44
2022-11-24T19:06:33.951Z,100881.06
2022-11-24T19:09:17.271Z,100887.16
2022-11-24T19:11:45.986Z,100887.16
2022-11-24T19:14:16.786Z,100888.03
2022-11-24T19:16:45.671Z,100882.78
2022-11-24T19:19:13.055Z,100877.56
2022-11-24T19:21:40.564Z,100884.53
2022-11-24T19:24:10.213Z,100883.66
2022-11-24T19:26:38.392Z,100878.53
2022-11-24T19:29:07.161Z,100869.78
2022-11-24T19:31:35.708Z,100875.88
2022-11-24T19:34:03.502Z,100879.34
2022-11-24T19:36:31.325Z,100874.06
2022-11-24T19:38:59.563Z,100880.19
2022-11-24T19:41:29.951Z,100872.25
2022-11-24T19:43:58.684Z,100882.72
2022-11-24T19:46:29.563Z,100884.47
2022-11-24T19:49:00.748Z,100891.47
2022-11-24T19:51:32.782Z,100885.34
2022-11-24T19:54:00.733Z,100875.66
2022-11-24T19:56:30.607Z,100878.25
2022-11-24T19:58:57.965Z,100900.94
2022-11-24T20:01:37.632Z,100882.59
2022-11-24T20:04:18.756Z,100878.19
2022-11-24T20:06:47.730Z,100874.75
2022-11-24T20:09:17.994Z,100880.00
2022-11-24T20:11:45.687Z,100879.16
2022-11-24T20:14:15.256Z,100885.34
2022-11-24T20:16:42.418Z,100881.91
2022-11-24T20:19:14.970Z,100881.94
2022-11-24T20:21:46.182Z,100879.34
2022-11-24T20:24:23.789Z,100880.25
2022-11-24T20:26:58.213Z,100875.03
2022-11-24T20:29:25.791Z,100882.03
2022-11-24T20:31:55.105Z,100869.84
2022-11-24T20:34:23.869Z,100876.00
2022-11-24T20:36:52.899Z,100882.16
2022-11-24T20:39:27.891Z,100868.19
2022-11-24T20:41:56.374Z,100885.72
2022-11-24T20:44:26.397Z,100882.25
2022-11-24T20:46:57.099Z,100876.19
2022-11-24T20:49:24.198Z,100876.25
2022-11-24T20:51:54.564Z,100861.41
2022-11-24T20:54:22.068Z,100864.94
2022-11-24T20:56:49.490Z,100867.56
2022-11-24T20:59:22.535Z,100866.72
2022-11-24T21:01:51.223Z,100855.38
2022-11-24T21:04:22.756Z,100855.38
2022-11-24T21:06:50.175Z,100850.13
2022-11-24T21:09:18.030Z,100865.06
2022-11-24T21:11:45.477Z,100858.94
2022-11-24T21:14:12.923Z,100861.56
2022-11-24T21:16:42.334Z,100851.06
2022-11-24T21:19:18.249Z,100844.13
2022-11-24T21:21:50.050Z,100851.16
2022-11-24T21:24:21.520Z,100848.53
2022-11-24T21:26:49.184Z,100852.09
2022-11-24T21:29:22.365Z,100849.47
2022-11-24T21:31:49.852Z,100849.47
2022-11-24T21:34:19.039Z,100854.72
2022-11-24T21:36:46.793Z,100852.97
2022-11-24T21:39:15.117Z,100846.84
2022-11-24T21:41:43.236Z,100845.97
2022-11-24T21:44:14.769Z,100848.59
2022-11-24T21:46:48.133Z,100841.56
2022-11-24T21:49:18.548Z,100843.28
2022-11-24T21:51:45.678Z,100843.28
2022-11-24T21:54:12.684Z,100832.78
2022-11-24T21:56:39.865Z,100836.28
2022-11-24T21:59:06.839Z,100830.16
2022-11-24T22:01:34.059Z,100827.53
2022-11-24T22:04:01.598Z,100816.13
2022-11-24T22:06:28.610Z,100819.66
2022-11-24T22:08:55.682Z,100807.41
2022-11-24T22:11:25.155Z,100803.91
2022-11-24T22:13:52.837Z,100808.28
2022-11-24T22:16:23.059Z,100801.28
2022-11-24T22:18:50.703Z,100810.94
2022-11-24T22:21:24.243Z,100798.69
2022-11-24T22:23:55.146Z,100807.44
2022-11-24T22:26:23.970Z,100798.69
2022-11-24T22:28:51.793Z,100802.19
2022-11-24T22:31:32.253Z,100801.31
2022-11-24T22:34:00.865Z,100788.22
2022-11-24T22:36:30.151Z,100792.59
2022-11-24T22:39:03.202Z,100780.38
2022-11-24T22:41:32.683Z,100780.41
2022-11-24T22:43:59.737Z,100778.63
2022-11-24T22:46:30.417Z,100777.78
2022-11-24T22:49:00.296Z,100772.56
2022-11-24T22:51:33.390Z,100769.06
2022-11-24T22:54:04.716Z,100778.72
2022-11-24T22:56:33.300Z,100770.84
2022-11-24T22:59:02.285Z,100777.00
2022-11-24T23:01:31.393Z,100779.63
2022-11-24T23:03:58.463Z,100785.75
2022-11-24T23:06:29.086Z,100772.63
2022-11-24T23:08:59.240Z,100772.63
2022-11-24T23:11:38.743Z,100768.22
2022-11-24T23:14:14.735Z,100775.25
2022-11-24T23:16:42.892Z,100771.75
2022-11-24T23:19:10.101Z,100772.66
2022-11-24T23:21:38.536Z,100775.28
2022-11-24T23:24:07.268Z,100776.16
2022-11-24T23:26:39.586Z,100773.50
2022-11-24T23:29:07.895Z,100766.53
2022-11-24T23:31:36.438Z,100778.78
2022-11-24T23:34:05.025Z,100762.13
2022-11-24T23:36:33.155Z,100765.66
2022-11-24T23:39:10.881Z,100770.03
2022-11-24T23:41:37.921Z,100746.34
2022-11-24T23:44:05.272Z,100757.72
2022-11-24T23:46:33.047Z,100759.50
2022-11-24T23:49:00.073Z,100748.13
2022-11-24T23:51:31.299Z,100763.88
2022-11-24T23:54:00.250Z,100761.25
2022-11-24T23:56:52.216Z,100762.13
2022-11-24T23:59:19.782Z,100753.34
